createdAt,value
2023-06-29T00:00:26.781Z,0.00
2023-06-29T00:01:26.812Z,0.00
2023-06-29T00:02:26.832Z,0.00
2023-06-29T00:03:26.828Z,0.00
2023-06-29T00:04:26.764Z,0.00
2023-06-29T00:05:26.752Z,0.00
2023-06-29T00:06:26.747Z,0.00
2023-06-29T00:07:26.839Z,0.00
2023-06-29T00:08:26.729Z,0.00
2023-06-29T00:09:26.755Z,0.00
2023-06-29T00:10:26.739Z,0.00
2023-06-29T00:11:26.738Z,0.00
2023-06-29T00:12:26.723Z,0.00
2023-06-29T00:13:26.695Z,0.00
2023-06-29T00:14:26.683Z,0.00
2023-06-29T00:15:26.680Z,0.00
2023-06-29T00:16:26.726Z,0.00
2023-06-29T00:17:26.672Z,0.00
2023-06-29T00:18:26.655Z,0.00
2023-06-29T00:19:26.675Z,0.00
2023-06-29T00:20:26.646Z,0.00
2023-06-29T00:21:26.662Z,0.00
2023-06-29T00:22:26.640Z,0.00
2023-06-29T00:23:26.616Z,0.00
2023-06-29T00:24:26.612Z,0.00
2023-06-29T00:25:26.635Z,0.00
2023-06-29T00:26:26.630Z,0.00
2023-06-29T00:27:26.619Z,0.00
2023-06-29T00:28:26.612Z,0.00
2023-06-29T00:29:26.573Z,0.00
2023-06-29T00:30:26.597Z,0.00
2023-06-29T00:31:26.579Z,0.00
2023-06-29T00:32:26.604Z,0.00
2023-06-29T00:33:26.553Z,0.00
2023-06-29T00:34:26.547Z,0.00
2023-06-29T00:35:26.560Z,0.00
2023-06-29T00:36:26.529Z,0.00
2023-06-29T00:37:26.512Z,0.00
2023-06-29T00:38:26.514Z,0.00
2023-06-29T00:39:26.536Z,0.00
2023-06-29T00:40:26.516Z,0.00
2023-06-29T00:41:26.481Z,0.00
2023-06-29T00:42:26.470Z,0.00
2023-06-29T00:43:27.476Z,0.00
2023-06-29T00:44:26.494Z,0.00
2023-06-29T00:45:26.471Z,0.00
2023-06-29T00:46:26.453Z,0.00
2023-06-29T00:47:26.500Z,0.00
2023-06-29T00:48:26.425Z,0.00
2023-06-29T00:49:26.449Z,0.00
2023-06-29T00:50:26.415Z,0.00
2023-06-29T00:51:26.419Z,0.00
2023-06-29T00:52:26.400Z,0.00
2023-06-29T00:53:26.390Z,0.00
2023-06-29T00:54:26.410Z,0.00
2023-06-29T00:55:26.378Z,0.00
2023-06-29T00:56:26.369Z,0.00
2023-06-29T00:57:26.367Z,0.00
2023-06-29T00:58:26.357Z,0.00
2023-06-29T00:59:26.367Z,0.00
2023-06-29T01:00:26.337Z,0.00
2023-06-29T01:01:26.362Z,0.00
2023-06-29T01:02:26.420Z,0.00
2023-06-29T01:03:26.443Z,0.00
2023-06-29T01:04:26.331Z,0.00
2023-06-29T01:05:26.311Z,0.00
2023-06-29T01:06:26.303Z,0.00
2023-06-29T01:07:26.328Z,0.00
2023-06-29T01:08:26.318Z,0.00
2023-06-29T01:09:26.285Z,0.00
2023-06-29T01:10:26.277Z,0.00
2023-06-29T01:11:26.305Z,0.00
2023-06-29T01:12:26.267Z,0.00
2023-06-29T01:13:26.288Z,0.00
2023-06-29T01:14:26.282Z,0.00
2023-06-29T01:15:26.229Z,0.00
2023-06-29T01:16:26.298Z,0.00
2023-06-29T01:17:26.255Z,0.00
2023-06-29T01:18:26.229Z,0.00
2023-06-29T01:19:26.211Z,0.00
2023-06-29T01:20:27.270Z,0.00
2023-06-29T01:21:26.189Z,0.00
2023-06-29T01:22:26.284Z,0.00
2023-06-29T01:23:26.241Z,0.00
2023-06-29T01:24:26.173Z,0.00
2023-06-29T01:25:58.965Z,0.00
2023-06-29T01:26:26.151Z,0.00
2023-06-29T01:27:26.177Z,0.00
2023-06-29T01:28:26.130Z,0.00
2023-06-29T01:29:26.194Z,0.00
2023-06-29T01:30:26.117Z,0.00
2023-06-29T01:31:26.119Z,0.00
2023-06-29T01:32:26.128Z,0.00
2023-06-29T01:33:26.104Z,0.00
2023-06-29T01:34:26.087Z,0.00
2023-06-29T01:35:26.077Z,0.00
2023-06-29T01:36:26.093Z,0.00
2023-06-29T01:37:26.093Z,0.00
2023-06-29T01:38:26.049Z,0.00
2023-06-29T01:39:26.047Z,0.00
2023-06-29T01:40:26.034Z,0.00
2023-06-29T01:41:26.055Z,0.00
2023-06-29T01:42:26.051Z,0.00
2023-06-29T01:43:26.013Z,0.00
2023-06-29T01:44:26.001Z,0.00
2023-06-29T01:45:26.001Z,0.00
2023-06-29T01:46:26.069Z,0.00
2023-06-29T01:47:26.014Z,0.00
2023-06-29T01:48:25.972Z,0.00
2023-06-29T01:49:26.006Z,0.00
2023-06-29T01:50:25.983Z,0.00
2023-06-29T01:51:25.987Z,0.00
2023-06-29T01:52:25.939Z,0.00
2023-06-29T01:53:25.945Z,0.00
2023-06-29T01:54:25.928Z,0.00
2023-06-29T01:55:25.948Z,0.00
2023-06-29T01:56:25.907Z,0.00
2023-06-29T01:57:25.906Z,0.00
2023-06-29T01:58:25.902Z,0.00
2023-06-29T01:59:25.897Z,0.00
2023-06-29T02:00:25.906Z,0.00
2023-06-29T02:01:25.908Z,0.00
2023-06-29T02:02:25.957Z,0.00
2023-06-29T02:03:25.903Z,0.00
2023-06-29T02:04:25.874Z,0.00
2023-06-29T02:05:25.865Z,0.00
2023-06-29T02:06:25.830Z,0.00
2023-06-29T02:07:25.849Z,0.00
2023-06-29T02:08:25.879Z,0.00
2023-06-29T02:09:25.834Z,0.00
2023-06-29T02:10:25.801Z,0.00
2023-06-29T02:11:25.796Z,0.00
2023-06-29T02:12:25.795Z,0.00
2023-06-29T02:13:25.787Z,0.00
2023-06-29T02:14:25.805Z,0.00
2023-06-29T02:15:25.777Z,0.00
2023-06-29T02:16:25.862Z,0.00
2023-06-29T02:17:25.770Z,0.00
2023-06-29T02:18:25.771Z,0.00
2023-06-29T02:19:25.759Z,0.00
2023-06-29T02:20:25.728Z,0.00
2023-06-29T02:21:25.719Z,0.00
2023-06-29T02:22:25.717Z,0.00
2023-06-29T02:23:25.738Z,0.00
2023-06-29T02:24:25.699Z,0.00
2023-06-29T02:25:25.688Z,0.00
2023-06-29T02:26:25.679Z,0.00
2023-06-29T02:27:25.677Z,0.00
2023-06-29T02:28:25.686Z,0.00
2023-06-29T02:29:25.672Z,0.00
2023-06-29T02:30:25.663Z,0.00
2023-06-29T02:31:25.727Z,0.00
2023-06-29T02:32:25.711Z,0.00
2023-06-29T02:33:25.683Z,4.00
2023-06-29T02:34:25.615Z,4.00
2023-06-29T02:35:26.612Z,0.00
2023-06-29T02:36:25.602Z,0.00
2023-06-29T02:37:25.630Z,4.00
2023-06-29T02:38:25.594Z,0.00
2023-06-29T02:39:25.585Z,4.00
2023-06-29T02:40:25.581Z,4.00
2023-06-29T02:41:25.609Z,4.00
2023-06-29T02:42:25.605Z,4.00
2023-06-29T02:43:25.557Z,4.00
2023-06-29T02:44:25.551Z,4.00
2023-06-29T02:45:25.544Z,8.00
2023-06-29T02:46:25.599Z,8.00
2023-06-29T02:47:25.564Z,12.00
2023-06-29T02:48:25.527Z,8.00
2023-06-29T02:49:25.515Z,8.00
2023-06-29T02:50:25.541Z,12.00
2023-06-29T02:51:25.523Z,16.00
2023-06-29T02:52:25.490Z,12.00
2023-06-29T02:53:25.478Z,16.00
2023-06-29T02:54:25.472Z,20.00
2023-06-29T02:55:25.472Z,20.00
2023-06-29T02:56:25.486Z,24.00
2023-06-29T02:57:25.451Z,24.00
2023-06-29T02:58:25.440Z,28.00
2023-06-29T02:59:25.436Z,32.00
2023-06-29T03:00:25.474Z,36.00
2023-06-29T03:01:25.487Z,40.00
2023-06-29T03:02:25.448Z,44.00
2023-06-29T03:03:25.487Z,48.00
2023-06-29T03:04:25.425Z,52.00
2023-06-29T03:05:25.417Z,56.00
2023-06-29T03:06:25.383Z,64.00
2023-06-29T03:07:25.409Z,68.00
2023-06-29T03:08:25.385Z,76.00
2023-06-29T03:09:25.360Z,80.00
2023-06-29T03:10:25.443Z,88.00
2023-06-29T03:11:25.350Z,96.00
2023-06-29T03:12:25.347Z,104.00
2023-06-29T03:13:25.355Z,112.00
2023-06-29T03:14:25.427Z,120.00
2023-06-29T03:15:25.341Z,128.00
2023-06-29T03:16:25.369Z,136.00
2023-06-29T03:17:25.297Z,144.00
2023-06-29T03:18:25.295Z,152.00
2023-06-29T03:19:25.321Z,164.00
2023-06-29T03:20:25.289Z,172.00
2023-06-29T03:21:25.266Z,184.00
2023-06-29T03:22:25.268Z,192.00
2023-06-29T03:23:25.253Z,204.00
2023-06-29T03:24:25.273Z,216.00
2023-06-29T03:25:25.247Z,224.00
2023-06-29T03:26:25.227Z,240.00
2023-06-29T03:27:25.231Z,252.00
2023-06-29T03:28:25.241Z,264.00
2023-06-29T03:29:25.232Z,280.00
2023-06-29T03:30:25.202Z,292.00
2023-06-29T03:31:25.298Z,308.00
2023-06-29T03:32:25.243Z,320.00
2023-06-29T03:33:25.205Z,336.00
2023-06-29T03:34:25.171Z,348.00
2023-06-29T03:35:25.164Z,364.00
2023-06-29T03:36:25.169Z,384.00
2023-06-29T03:37:25.148Z,400.00
2023-06-29T03:38:25.178Z,420.00
2023-06-29T03:39:25.137Z,444.00
2023-06-29T03:40:25.128Z,468.00
2023-06-29T03:41:25.117Z,488.00
2023-06-29T03:42:25.134Z,512.00
2023-06-29T03:43:25.153Z,532.00
2023-06-29T03:44:25.113Z,548.00
2023-06-29T03:45:25.121Z,560.00
2023-06-29T03:46:25.093Z,568.00
2023-06-29T03:47:25.152Z,592.00
2023-06-29T03:48:25.147Z,616.00
2023-06-29T03:49:25.056Z,640.00
2023-06-29T03:50:25.054Z,652.00
2023-06-29T03:51:25.037Z,664.00
2023-06-29T03:52:26.058Z,684.00
2023-06-29T03:53:25.029Z,712.00
2023-06-29T03:54:25.030Z,748.00
2023-06-29T03:55:25.016Z,780.00
2023-06-29T03:56:25.029Z,812.00
2023-06-29T03:57:25.023Z,868.00
2023-06-29T03:58:24.994Z,944.00
2023-06-29T03:59:24.983Z,1024.00
2023-06-29T04:00:25.848Z,1120.00
2023-06-29T04:01:25.017Z,1236.00
2023-06-29T04:02:25.061Z,1316.00
2023-06-29T04:03:25.040Z,1348.00
2023-06-29T04:04:24.955Z,1480.00
2023-06-29T04:05:24.959Z,1624.00
2023-06-29T04:06:24.961Z,1736.00
2023-06-29T04:07:25.011Z,1808.00
2023-06-29T04:08:24.928Z,4304.00
2023-06-29T04:09:24.907Z,7428.00
2023-06-29T04:10:24.938Z,8268.00
2023-06-29T04:11:24.911Z,7568.00
2023-06-29T04:12:24.900Z,9940.00
2023-06-29T04:13:24.880Z,9832.00
2023-06-29T04:14:24.885Z,10104.00
2023-06-29T04:15:24.884Z,12800.00
2023-06-29T04:16:24.896Z,13984.00
2023-06-29T04:17:24.857Z,13920.00
2023-06-29T04:18:24.843Z,13408.00
2023-06-29T04:19:24.875Z,13984.00
2023-06-29T04:20:24.907Z,14880.00
2023-06-29T04:21:24.813Z,15040.00
2023-06-29T04:22:24.803Z,15040.00
2023-06-29T04:23:24.793Z,14880.00
2023-06-29T04:24:24.837Z,13952.00
2023-06-29T04:25:24.816Z,13408.00
2023-06-29T04:26:24.787Z,14912.00
2023-06-29T04:27:24.773Z,14496.00
2023-06-29T04:28:24.764Z,13760.00
2023-06-29T04:29:24.776Z,16352.00
2023-06-29T04:30:24.765Z,17344.00
2023-06-29T04:31:24.750Z,17760.00
2023-06-29T04:32:24.806Z,18464.00
2023-06-29T04:33:24.730Z,19904.00
2023-06-29T04:34:24.743Z,22592.00
2023-06-29T04:35:24.718Z,25216.00
2023-06-29T04:36:24.700Z,26080.00
2023-06-29T04:37:24.689Z,24832.00
2023-06-29T04:38:24.742Z,24448.00
2023-06-29T04:39:24.698Z,25024.00
2023-06-29T04:40:24.677Z,25216.00
2023-06-29T04:41:24.655Z,25056.00
2023-06-29T04:42:24.656Z,25408.00
2023-06-29T04:43:24.670Z,26848.00
2023-06-29T04:44:24.637Z,26784.00
2023-06-29T04:45:24.628Z,25312.00
2023-06-29T04:46:24.644Z,24192.00
2023-06-29T04:47:24.617Z,24736.00
2023-06-29T04:48:24.633Z,28128.00
2023-06-29T04:49:24.597Z,32512.00
2023-06-29T04:50:24.591Z,32704.00
2023-06-29T04:51:24.605Z,32160.00
2023-06-29T04:52:24.602Z,35200.00
2023-06-29T04:53:24.610Z,38496.00
2023-06-29T04:54:24.572Z,37216.00
2023-06-29T04:55:24.553Z,30432.00
2023-06-29T04:56:24.543Z,24448.00
2023-06-29T04:57:25.823Z,21632.00
2023-06-29T04:58:24.541Z,20704.00
2023-06-29T04:59:24.531Z,20672.00
2023-06-29T05:00:24.518Z,20384.00
2023-06-29T05:01:24.623Z,19840.00
2023-06-29T05:02:24.550Z,19584.00
2023-06-29T05:03:24.591Z,19392.00
2023-06-29T05:04:24.487Z,19456.00
2023-06-29T05:05:24.477Z,19392.00
2023-06-29T05:06:24.470Z,19520.00
2023-06-29T05:07:24.546Z,19712.00
2023-06-29T05:08:24.456Z,19712.00
2023-06-29T05:09:24.458Z,19808.00
2023-06-29T05:10:24.468Z,19904.00
2023-06-29T05:11:24.460Z,19968.00
2023-06-29T05:12:24.475Z,20192.00
2023-06-29T05:13:24.415Z,20416.00
2023-06-29T05:14:24.421Z,20928.00
2023-06-29T05:15:24.467Z,21792.00
2023-06-29T05:16:24.550Z,23840.00
2023-06-29T05:17:24.439Z,29280.00
2023-06-29T05:18:24.414Z,35488.00
2023-06-29T05:19:24.377Z,40416.00
2023-06-29T05:20:24.363Z,48000.00
2023-06-29T05:21:24.390Z,50624.00
2023-06-29T05:22:24.379Z,52768.00
2023-06-29T05:23:24.376Z,52352.00
2023-06-29T05:24:24.334Z,54528.00
2023-06-29T05:25:24.373Z,56064.00
2023-06-29T05:26:24.354Z,58144.00
2023-06-29T05:27:24.313Z,59328.00
2023-06-29T05:28:24.314Z,60288.00
2023-06-29T05:29:24.302Z,60224.00
2023-06-29T05:30:24.323Z,57024.00
2023-06-29T05:31:24.321Z,55648.00
2023-06-29T05:32:24.292Z,55136.00
2023-06-29T05:33:24.278Z,57568.00
2023-06-29T05:34:24.274Z,59232.00
2023-06-29T05:35:24.287Z,61152.00
2023-06-29T05:36:24.265Z,62816.00
2023-06-29T05:37:24.239Z,62656.00
2023-06-29T05:38:24.256Z,62304.00
2023-06-29T05:39:24.225Z,59168.00
2023-06-29T05:40:24.250Z,32096.00
2023-06-29T05:41:24.200Z,9228.00
2023-06-29T05:42:24.195Z,6492.00
2023-06-29T05:43:24.222Z,5016.00
2023-06-29T05:44:24.183Z,4420.00
2023-06-29T05:45:24.203Z,4196.00
2023-06-29T05:46:24.198Z,4060.00
2023-06-29T05:47:24.168Z,3952.00
2023-06-29T05:48:24.151Z,3836.00
2023-06-29T05:49:24.191Z,3752.00
2023-06-29T05:50:24.175Z,3684.00
2023-06-29T05:51:24.126Z,3632.00
2023-06-29T05:52:24.128Z,3568.00
2023-06-29T05:53:24.147Z,3528.00
2023-06-29T05:54:24.142Z,3492.00
2023-06-29T05:55:24.105Z,3488.00
2023-06-29T05:56:24.108Z,3456.00
2023-06-29T05:57:24.090Z,3440.00
2023-06-29T05:58:24.108Z,3428.00
2023-06-29T05:59:24.111Z,3408.00
2023-06-29T06:00:24.069Z,3388.00
2023-06-29T06:01:24.089Z,3376.00
2023-06-29T06:02:24.074Z,3356.00
2023-06-29T06:03:24.215Z,3344.00
2023-06-29T06:04:24.066Z,3332.00
2023-06-29T06:05:24.034Z,3320.00
2023-06-29T06:06:24.025Z,3312.00
2023-06-29T06:07:24.029Z,3316.00
2023-06-29T06:08:24.040Z,3312.00
2023-06-29T06:09:24.002Z,3296.00
2023-06-29T06:10:23.993Z,3292.00
2023-06-29T06:11:23.982Z,3288.00
2023-06-29T06:12:24.015Z,3280.00
2023-06-29T06:13:23.994Z,3272.00
2023-06-29T06:14:23.968Z,3276.00
2023-06-29T06:15:23.989Z,3280.00
2023-06-29T06:16:23.993Z,3288.00
2023-06-29T06:17:23.996Z,3204.00
2023-06-29T06:18:23.936Z,3272.00
2023-06-29T06:19:23.938Z,3296.00
2023-06-29T06:20:23.944Z,3280.00
2023-06-29T06:21:23.911Z,3268.00
2023-06-29T06:22:23.935Z,3252.00
2023-06-29T06:23:23.896Z,3240.00
2023-06-29T06:24:23.892Z,3208.00
2023-06-29T06:25:23.927Z,3228.00
2023-06-29T06:26:23.907Z,3232.00
2023-06-29T06:27:23.927Z,3236.00
2023-06-29T06:28:23.932Z,3240.00
2023-06-29T06:29:23.851Z,3244.00
2023-06-29T06:30:23.844Z,3244.00
2023-06-29T06:31:33.373Z,3260.00
2023-06-29T06:32:25.856Z,3252.00
2023-06-29T06:33:23.847Z,3252.00
2023-06-29T06:34:23.815Z,3260.00
2023-06-29T06:35:23.805Z,3268.00
2023-06-29T06:36:23.831Z,3276.00
2023-06-29T06:37:23.792Z,3272.00
2023-06-29T06:38:25.836Z,3296.00
2023-06-29T06:39:24.783Z,3300.00
2023-06-29T06:40:23.776Z,3284.00
2023-06-29T06:41:23.786Z,3268.00
2023-06-29T06:42:23.752Z,2952.00
2023-06-29T06:43:23.753Z,2728.00
2023-06-29T06:44:23.748Z,2504.00
2023-06-29T06:45:23.761Z,2688.00
2023-06-29T06:46:23.786Z,2664.00
2023-06-29T06:47:23.739Z,2932.00
2023-06-29T06:48:23.711Z,3172.00
2023-06-29T06:49:23.741Z,3156.00
2023-06-29T06:50:23.745Z,3160.00
2023-06-29T06:51:23.686Z,3152.00
2023-06-29T06:52:23.682Z,3136.00
2023-06-29T06:53:23.673Z,3120.00
2023-06-29T06:54:23.669Z,3112.00
2023-06-29T06:55:23.682Z,3104.00
2023-06-29T06:56:23.691Z,3096.00
2023-06-29T06:57:23.642Z,3088.00
2023-06-29T06:58:23.627Z,3080.00
2023-06-29T06:59:23.653Z,3068.00
2023-06-29T07:00:23.652Z,3060.00
2023-06-29T07:01:23.839Z,3052.00
2023-06-29T07:02:23.702Z,3036.00
2023-06-29T07:03:23.647Z,3028.00
2023-06-29T07:04:23.644Z,3016.00
2023-06-29T07:05:23.595Z,3012.00
2023-06-29T07:06:23.580Z,3012.00
2023-06-29T07:07:23.789Z,2992.00
2023-06-29T07:08:23.570Z,2964.00
2023-06-29T07:09:23.592Z,2984.00
2023-06-29T07:10:23.550Z,2968.00
2023-06-29T07:11:23.537Z,2964.00
2023-06-29T07:12:23.534Z,2964.00
2023-06-29T07:13:23.567Z,2924.00
2023-06-29T07:14:23.585Z,2952.00
2023-06-29T07:15:23.503Z,2936.00
2023-06-29T07:16:23.537Z,2964.00
2023-06-29T07:17:23.521Z,2960.00
2023-06-29T07:18:23.531Z,2960.00
2023-06-29T07:21:26.187Z,2960.00
2023-06-29T07:24:24.444Z,3012.00
2023-06-29T07:25:56.033Z,3016.00
2023-06-29T07:26:23.426Z,3008.00
2023-06-29T07:27:23.421Z,2996.00
2023-06-29T07:28:23.466Z,2988.00
2023-06-29T07:29:23.408Z,2972.00
2023-06-29T07:30:23.420Z,2940.00
2023-06-29T07:31:23.416Z,2928.00
2023-06-29T07:32:23.465Z,2968.00
2023-06-29T07:33:23.445Z,2988.00
2023-06-29T07:34:23.364Z,2980.00
2023-06-29T07:35:23.368Z,2988.00
2023-06-29T07:36:23.349Z,3004.00
2023-06-29T07:37:23.371Z,3008.00
2023-06-29T07:38:23.338Z,3020.00
2023-06-29T07:39:23.349Z,3016.00
2023-06-29T07:40:23.377Z,3016.00
2023-06-29T07:41:23.319Z,3020.00
2023-06-29T07:42:38.076Z,3020.00
2023-06-29T07:43:25.301Z,3008.00
2023-06-29T07:44:23.290Z,3000.00
2023-06-29T07:45:23.284Z,3012.00
2023-06-29T07:46:23.302Z,3016.00
2023-06-29T07:47:23.391Z,3016.00
2023-06-29T07:48:23.429Z,3012.00
2023-06-29T07:49:23.264Z,3004.00
2023-06-29T07:50:23.352Z,3004.00
2023-06-29T07:51:23.260Z,3004.00
2023-06-29T07:52:23.223Z,3004.00
2023-06-29T07:53:23.227Z,3000.00
2023-06-29T07:54:23.212Z,3004.00
2023-06-29T07:55:23.322Z,3008.00
2023-06-29T07:56:23.550Z,3004.00
2023-06-29T07:59:24.204Z,2980.00
2023-06-29T08:00:23.268Z,2984.00
2023-06-29T08:01:23.221Z,2984.00
2023-06-29T08:02:23.199Z,3008.00
2023-06-29T08:03:23.143Z,2988.00
2023-06-29T08:07:24.199Z,2976.00
2023-06-29T08:08:23.238Z,2968.00
2023-06-29T08:09:23.105Z,2968.00
2023-06-29T08:10:23.131Z,2960.00
2023-06-29T08:11:23.157Z,2960.00
2023-06-29T08:12:23.088Z,2936.00
2023-06-29T08:13:23.074Z,2920.00
2023-06-29T08:14:23.118Z,2936.00
2023-06-29T08:15:23.084Z,2940.00
2023-06-29T08:16:23.144Z,2940.00
2023-06-29T08:17:23.067Z,2948.00
2023-06-29T08:18:23.056Z,2776.00
2023-06-29T08:19:23.109Z,2908.00
2023-06-29T08:20:23.043Z,2904.00
2023-06-29T08:21:23.066Z,2916.00
2023-06-29T08:22:23.020Z,2912.00
2023-06-29T08:23:23.013Z,2908.00
2023-06-29T08:24:23.041Z,2900.00
2023-06-29T08:25:22.987Z,2888.00
2023-06-29T08:26:23.021Z,2884.00
2023-06-29T08:27:22.973Z,2884.00
2023-06-29T08:28:22.978Z,2884.00
2023-06-29T08:29:23.982Z,2888.00
2023-06-29T08:30:23.033Z,2880.00
2023-06-29T08:31:22.988Z,2880.00
2023-06-29T08:32:23.047Z,2900.00
2023-06-29T08:33:23.085Z,2900.00
2023-06-29T08:34:22.917Z,2892.00
2023-06-29T08:35:22.912Z,2888.00
2023-06-29T08:36:22.907Z,2896.00
2023-06-29T08:37:22.891Z,2900.00
2023-06-29T08:38:22.929Z,2908.00
2023-06-29T08:39:22.938Z,2916.00
2023-06-29T08:40:22.938Z,2916.00
2023-06-29T08:41:22.867Z,2924.00
2023-06-29T08:42:22.887Z,2928.00
2023-06-29T08:43:22.888Z,2924.00
2023-06-29T08:44:22.849Z,2932.00
2023-06-29T08:45:22.838Z,2932.00
2023-06-29T08:46:22.865Z,2928.00
2023-06-29T08:47:22.909Z,2924.00
2023-06-29T08:48:22.817Z,2948.00
2023-06-29T08:49:22.810Z,2944.00
2023-06-29T08:50:22.868Z,2988.00
2023-06-29T08:51:22.788Z,3036.00
2023-06-29T08:52:22.809Z,3048.00
2023-06-29T08:53:22.846Z,3148.00
2023-06-29T08:54:22.766Z,3152.00
2023-06-29T08:55:22.758Z,2792.00
2023-06-29T08:56:22.805Z,2752.00
2023-06-29T08:57:22.772Z,2588.00
2023-06-29T08:58:22.743Z,2596.00
2023-06-29T08:59:22.736Z,2492.00
2023-06-29T09:00:22.785Z,2360.00
2023-06-29T09:01:22.805Z,2332.00
2023-06-29T09:02:22.783Z,2412.00
2023-06-29T09:03:22.849Z,2052.00
2023-06-29T09:04:22.697Z,2468.00
2023-06-29T09:05:22.694Z,2460.00
2023-06-29T09:06:22.700Z,2948.00
2023-06-29T09:07:22.693Z,3164.00
2023-06-29T09:08:22.703Z,3212.00
2023-06-29T09:09:22.656Z,3288.00
2023-06-29T09:10:22.787Z,2872.00
2023-06-29T09:11:22.670Z,2956.00
2023-06-29T09:12:22.632Z,3292.00
2023-06-29T09:13:22.620Z,3368.00
2023-06-29T09:14:22.624Z,3428.00
2023-06-29T09:15:22.816Z,3000.00
2023-06-29T09:16:22.744Z,2744.00
2023-06-29T09:17:22.620Z,2704.00
2023-06-29T09:18:22.584Z,2644.00
2023-06-29T09:19:22.583Z,2840.00
2023-06-29T09:20:22.601Z,2952.00
2023-06-29T09:21:22.568Z,2788.00
2023-06-29T09:22:22.567Z,2976.00
2023-06-29T09:23:22.557Z,2696.00
2023-06-29T09:24:22.549Z,2784.00
2023-06-29T09:26:23.556Z,2932.00
2023-06-29T09:27:22.528Z,2968.00
2023-06-29T09:28:22.512Z,3064.00
2023-06-29T09:29:22.542Z,3084.00
2023-06-29T09:30:22.532Z,3048.00
2023-06-29T09:31:22.560Z,2956.00
2023-06-29T09:32:22.515Z,2792.00
2023-06-29T09:33:22.493Z,2740.00
2023-06-29T09:34:22.533Z,2664.00
2023-06-29T09:35:22.479Z,2924.00
2023-06-29T09:36:22.471Z,2704.00
2023-06-29T09:37:22.455Z,3216.00
2023-06-29T09:38:22.453Z,3224.00
2023-06-29T09:39:22.459Z,3204.00
2023-06-29T09:40:22.425Z,3176.00
2023-06-29T09:41:22.422Z,3168.00
2023-06-29T09:42:22.451Z,3148.00
2023-06-29T09:43:23.093Z,3124.00
2023-06-29T09:44:22.432Z,3112.00
2023-06-29T09:45:22.404Z,3084.00
2023-06-29T09:46:22.425Z,3028.00
2023-06-29T09:49:23.501Z,3044.00
2023-06-29T09:50:22.518Z,2560.00
2023-06-29T09:51:22.495Z,2620.00
2023-06-29T09:52:22.422Z,2712.00
2023-06-29T09:53:22.363Z,2632.00
2023-06-29T09:54:22.347Z,2556.00
2023-06-29T09:55:22.321Z,3024.00
2023-06-29T09:56:23.007Z,3116.00
2023-06-29T09:57:22.290Z,3232.00
2023-06-29T09:58:22.320Z,3256.00
2023-06-29T09:59:22.305Z,3264.00
2023-06-29T10:00:22.286Z,3240.00
2023-06-29T10:01:22.311Z,3252.00
2023-06-29T10:02:22.380Z,3288.00
2023-06-29T10:03:22.328Z,3252.00
2023-06-29T10:04:22.266Z,3240.00
2023-06-29T10:05:22.246Z,3236.00
2023-06-29T10:06:22.258Z,3260.00
2023-06-29T10:07:22.404Z,3292.00
2023-06-29T10:08:22.269Z,3308.00
2023-06-29T10:09:22.252Z,3316.00
2023-06-29T10:10:22.218Z,3356.00
2023-06-29T10:11:22.198Z,3352.00
2023-06-29T10:12:22.248Z,3368.00
2023-06-29T10:13:22.205Z,3292.00
2023-06-29T10:14:22.190Z,3200.00
2023-06-29T10:15:22.172Z,3280.00
2023-06-29T10:16:22.186Z,3340.00
2023-06-29T10:17:22.221Z,3376.00
2023-06-29T10:18:22.168Z,3412.00
2023-06-29T10:19:22.174Z,3496.00
2023-06-29T10:20:22.138Z,3532.00
2023-06-29T10:21:22.226Z,3580.00
2023-06-29T10:22:22.157Z,3604.00
2023-06-29T10:23:23.548Z,3648.00
2023-06-29T10:24:22.109Z,3740.00
2023-06-29T10:25:22.101Z,3816.00
2023-06-29T10:26:22.125Z,3824.00
2023-06-29T10:27:22.089Z,3868.00
2023-06-29T10:28:22.083Z,3888.00
2023-06-29T10:29:23.288Z,3964.00
2023-06-29T10:30:22.065Z,4004.00
2023-06-29T10:31:22.112Z,3768.00
2023-06-29T10:32:22.057Z,3444.00
2023-06-29T10:33:22.043Z,2428.00
2023-06-29T10:34:22.034Z,2224.00
2023-06-29T10:35:23.509Z,2148.00
2023-06-29T10:36:22.130Z,2092.00
2023-06-29T10:37:22.014Z,2064.00
2023-06-29T10:38:22.005Z,2072.00
2023-06-29T10:39:22.008Z,2108.00
2023-06-29T10:40:22.044Z,2152.00
2023-06-29T10:41:21.991Z,2200.00
2023-06-29T10:42:21.974Z,2220.00
2023-06-29T10:43:21.970Z,2184.00
2023-06-29T10:44:21.957Z,2244.00
2023-06-29T10:45:21.993Z,2180.00
2023-06-29T10:46:21.996Z,2208.00
2023-06-29T10:47:21.956Z,2236.00
2023-06-29T10:48:38.483Z,2036.00
2023-06-29T10:49:23.969Z,1992.00
2023-06-29T10:50:21.948Z,1952.00
2023-06-29T10:51:21.965Z,1928.00
2023-06-29T10:52:21.903Z,1912.00
2023-06-29T10:53:21.895Z,1888.00
2023-06-29T10:54:21.935Z,1848.00
2023-06-29T10:55:21.901Z,1792.00
2023-06-29T10:56:21.872Z,1752.00
2023-06-29T10:57:21.877Z,1716.00
2023-06-29T10:58:21.867Z,1692.00
2023-06-29T10:59:21.902Z,1668.00
2023-06-29T11:00:21.858Z,1644.00
2023-06-29T11:01:21.879Z,1608.00
2023-06-29T11:02:21.853Z,1576.00
2023-06-29T11:03:21.868Z,1540.00
2023-06-29T11:04:21.983Z,1512.00
2023-06-29T11:05:21.837Z,1496.00
2023-06-29T11:06:33.486Z,1492.00
2023-06-29T11:07:23.906Z,1480.00
2023-06-29T11:08:21.840Z,1472.00
2023-06-29T11:09:21.820Z,1452.00
2023-06-29T11:10:21.793Z,1440.00
2023-06-29T11:11:21.761Z,1432.00
2023-06-29T11:12:21.757Z,1424.00
2023-06-29T11:13:21.771Z,1416.00
2023-06-29T11:14:21.742Z,1404.00
2023-06-29T11:15:21.737Z,1404.00
2023-06-29T11:16:21.774Z,1404.00
2023-06-29T11:17:21.771Z,1404.00
2023-06-29T11:18:21.744Z,1404.00
2023-06-29T11:19:22.712Z,1404.00
2023-06-29T11:20:21.701Z,1412.00
2023-06-29T11:21:21.699Z,1412.00
2023-06-29T11:22:21.726Z,1404.00
2023-06-29T11:23:21.675Z,1388.00
2023-06-29T11:24:21.678Z,1372.00
2023-06-29T11:25:21.681Z,1360.00
2023-06-29T11:26:21.675Z,1340.00
2023-06-29T11:27:21.669Z,1328.00
2023-06-29T11:28:21.643Z,1324.00
2023-06-29T11:29:21.641Z,1324.00
2023-06-29T11:30:21.628Z,1324.00
2023-06-29T11:31:21.644Z,1320.00
2023-06-29T11:32:21.706Z,1316.00
2023-06-29T11:33:33.804Z,1320.00
2023-06-29T11:34:23.593Z,1324.00
2023-06-29T11:35:21.592Z,1320.00
2023-06-29T11:36:21.655Z,1312.00
2023-06-29T11:38:21.570Z,1264.00
2023-06-29T11:39:22.603Z,1232.00
2023-06-29T11:40:21.560Z,1204.00
2023-06-29T11:41:21.570Z,1188.00
2023-06-29T11:42:21.571Z,1180.00
2023-06-29T11:44:22.533Z,1164.00
2023-06-29T11:45:21.543Z,1168.00
2023-06-29T11:46:21.579Z,1188.00
2023-06-29T11:48:22.590Z,1244.00
2023-06-29T11:49:22.963Z,1280.00
2023-06-29T11:50:22.549Z,1328.00
2023-06-29T11:51:21.500Z,1376.00
2023-06-29T11:52:21.465Z,1416.00
2023-06-29T11:53:21.466Z,1460.00
2023-06-29T11:54:21.459Z,1512.00
2023-06-29T11:55:23.666Z,1572.00
2023-06-29T11:56:22.440Z,1640.00
2023-06-29T11:57:21.430Z,1708.00
2023-06-29T11:58:21.424Z,1772.00
2023-06-29T11:59:21.447Z,1840.00
2023-06-29T12:00:21.503Z,1924.00
2023-06-29T12:01:22.723Z,2024.00
2023-06-29T12:02:21.424Z,2176.00
2023-06-29T12:03:21.440Z,2408.00
2023-06-29T12:04:21.451Z,2440.00
2023-06-29T12:05:21.413Z,2728.00
2023-06-29T12:06:21.373Z,2776.00
2023-06-29T12:07:21.419Z,2648.00
2023-06-29T12:08:21.666Z,2596.00
2023-06-29T12:09:21.401Z,2576.00
2023-06-29T12:10:21.333Z,2484.00
2023-06-29T12:11:22.936Z,2396.00
2023-06-29T12:12:22.181Z,2324.00
2023-06-29T12:13:21.338Z,2300.00
2023-06-29T12:14:21.323Z,2328.00
2023-06-29T12:15:21.296Z,2396.00
2023-06-29T12:18:22.545Z,2860.00
2023-06-29T12:19:21.541Z,2716.00
2023-06-29T12:20:21.782Z,2684.00
2023-06-29T12:21:21.476Z,2692.00
2023-06-29T12:22:21.245Z,2792.00
2023-06-29T12:23:21.255Z,3020.00
2023-06-29T12:24:21.260Z,2900.00
2023-06-29T12:25:21.237Z,2848.00
2023-06-29T12:26:21.223Z,2724.00
2023-06-29T12:27:21.247Z,2636.00
2023-06-29T12:28:21.280Z,2556.00
2023-06-29T12:29:21.278Z,2500.00
2023-06-29T12:30:21.312Z,2432.00
2023-06-29T12:31:21.297Z,2356.00
2023-06-29T12:32:21.313Z,2272.00
2023-06-29T12:33:21.210Z,2188.00
2023-06-29T12:34:21.247Z,2124.00
2023-06-29T12:35:21.156Z,2084.00
2023-06-29T12:36:21.147Z,2048.00
2023-06-29T12:37:21.171Z,2000.00
2023-06-29T12:38:21.142Z,1960.00